sensor_id;sensor_type;location;lat;lon;timestamp;P1;durP1;ratioP1;P2;durP2;ratioP2
33459;SDS011;19795;53.160;6.612;2023-02-10T05:09:12;29.63;;;9.90;;
33459;SDS011;19795;53.160;6.612;2023-02-10T05:11:37;34.70;;;10.32;;
33459;SDS011;19795;53.160;6.612;2023-02-10T05:16:52;30.52;;;8.88;;
33459;SDS011;19795;53.160;6.612;2023-02-10T05:19:18;33.22;;;9.35;;
33459;SDS011;19795;53.160;6.612;2023-02-10T05:21:44;34.78;;;9.70;;
33459;SDS011;19795;53.160;6.612;2023-02-10T05:24:09;34.90;;;9.57;;
33459;SDS011;19795;53.160;6.612;2023-02-10T05:26:35;34.28;;;9.57;;
33459;SDS011;19795;53.160;6.612;2023-02-10T05:29:01;38.95;;;9.05;;
33459;SDS011;19795;53.160;6.612;2023-02-10T05:31:27;28.92;;;9.25;;
33459;SDS011;19795;53.160;6.612;2023-02-10T05:33:52;29.40;;;10.23;;
33459;SDS011;19795;53.160;6.612;2023-02-10T05:36:18;33.35;;;10.55;;
33459;SDS011;19795;53.160;6.612;2023-02-10T05:38:44;35.90;;;10.82;;
33459;SDS011;19795;53.160;6.612;2023-02-10T05:41:30;35.40;;;12.00;;
33459;SDS011;19795;53.160;6.612;2023-02-10T05:43:56;34.67;;;12.00;;
33459;SDS011;19795;53.160;6.612;2023-02-10T05:46:22;37.88;;;12.88;;
33459;SDS011;19795;53.160;6.612;2023-02-10T05:48:47;40.53;;;12.00;;
33459;SDS011;19795;53.160;6.612;2023-02-10T05:51:13;36.20;;;12.80;;
33459;SDS011;19795;53.160;6.612;2023-02-10T05:53:38;36.03;;;12.43;;
33459;SDS011;19795;53.160;6.612;2023-02-10T05:56:04;34.55;;;13.82;;
33459;SDS011;19795;53.160;6.612;2023-02-10T05:58:30;48.47;;;14.57;;
33459;SDS011;19795;53.160;6.612;2023-02-10T06:00:57;40.10;;;13.48;;
33459;SDS011;19795;53.160;6.612;2023-02-10T06:03:23;39.30;;;14.00;;
33459;SDS011;19795;53.160;6.612;2023-02-10T06:05:49;39.70;;;13.77;;
33459;SDS011;19795;53.160;6.612;2023-02-10T06:08:16;40.42;;;13.48;;
33459;SDS011;19795;53.160;6.612;2023-02-10T06:10:42;47.30;;;15.40;;
33459;SDS011;19795;53.160;6.612;2023-02-10T06:13:07;45.05;;;14.90;;
33459;SDS011;19795;53.160;6.612;2023-02-10T06:15:33;38.00;;;14.52;;
33459;SDS011;19795;53.160;6.612;2023-02-10T06:17:59;39.00;;;15.48;;
33459;SDS011;19795;53.160;6.612;2023-02-10T06:20:25;37.80;;;14.40;;
33459;SDS011;19795;53.160;6.612;2023-02-10T06:22:50;46.42;;;15.43;;
33459;SDS011;19795;53.160;6.612;2023-02-10T06:25:16;47.53;;;15.70;;
33459;SDS011;19795;53.160;6.612;2023-02-10T06:27:42;45.25;;;16.70;;
33459;SDS011;19795;53.160;6.612;2023-02-10T06:30:07;40.88;;;16.73;;
33459;SDS011;19795;53.160;6.612;2023-02-10T06:32:34;49.35;;;17.33;;
33459;SDS011;19795;53.160;6.612;2023-02-10T06:35:00;43.65;;;16.77;;
33459;SDS011;19795;53.160;6.612;2023-02-10T06:37:25;48.25;;;18.27;;
33459;SDS011;19795;53.160;6.612;2023-02-10T06:39:51;42.50;;;17.40;;
33459;SDS011;19795;53.160;6.612;2023-02-10T06:42:17;44.70;;;17.75;;
33459;SDS011;19795;53.160;6.612;2023-02-10T06:44:42;47.55;;;17.17;;
33459;SDS011;19795;53.160;6.612;2023-02-10T06:47:08;46.28;;;17.83;;
33459;SDS011;19795;53.160;6.612;2023-02-10T06:49:34;46.22;;;17.27;;
33459;SDS011;19795;53.160;6.612;2023-02-10T06:52:00;42.47;;;16.90;;
33459;SDS011;19795;53.160;6.612;2023-02-10T06:54:25;56.13;;;17.73;;
33459;SDS011;19795;53.160;6.612;2023-02-10T06:56:51;46.47;;;17.52;;
33459;SDS011;19795;53.160;6.612;2023-02-10T06:59:17;44.10;;;18.50;;
33459;SDS011;19795;53.160;6.612;2023-02-10T07:01:43;41.25;;;17.67;;
33459;SDS011;19795;53.160;6.612;2023-02-10T07:04:08;49.50;;;18.33;;
33459;SDS011;19795;53.160;6.612;2023-02-10T07:06:34;47.20;;;17.02;;
33459;SDS011;19795;53.160;6.612;2023-02-10T07:09:00;48.63;;;17.65;;
33459;SDS011;19795;53.160;6.612;2023-02-10T07:11:27;40.97;;;17.85;;
33459;SDS011;19795;53.160;6.612;2023-02-10T07:13:53;40.80;;;17.48;;
33459;SDS011;19795;53.160;6.612;2023-02-10T07:16:19;43.00;;;17.40;;
33459;SDS011;19795;53.160;6.612;2023-02-10T07:18:44;45.08;;;17.17;;
33459;SDS011;19795;53.160;6.612;2023-02-10T07:21:10;43.50;;;18.20;;
33459;SDS011;19795;53.160;6.612;2023-02-10T07:23:35;49.53;;;20.02;;
33459;SDS011;19795;53.160;6.612;2023-02-10T07:26:01;41.13;;;16.88;;
33459;SDS011;19795;53.160;6.612;2023-02-10T07:28:27;48.13;;;19.25;;
33459;SDS011;19795;53.160;6.612;2023-02-10T07:30:53;47.80;;;19.17;;
33459;SDS011;19795;53.160;6.612;2023-02-10T07:33:19;38.83;;;17.88;;
33459;SDS011;19795;53.160;6.612;2023-02-10T07:35:44;45.80;;;18.20;;
33459;SDS011;19795;53.160;6.612;2023-02-10T07:38:10;45.45;;;18.73;;
33459;SDS011;19795;53.160;6.612;2023-02-10T07:40:36;40.63;;;18.10;;
33459;SDS011;19795;53.160;6.612;2023-02-10T07:43:01;43.33;;;18.00;;
33459;SDS011;19795;53.160;6.612;2023-02-10T07:45:27;55.35;;;19.42;;
33459;SDS011;19795;53.160;6.612;2023-02-10T07:47:55;51.35;;;19.08;;
33459;SDS011;19795;53.160;6.612;2023-02-10T07:50:24;41.42;;;19.13;;
33459;SDS011;19795;53.160;6.612;2023-02-10T07:52:50;44.00;;;18.52;;
33459;SDS011;19795;53.160;6.612;2023-02-10T07:55:17;36.75;;;17.63;;
33459;SDS011;19795;53.160;6.612;2023-02-10T07:57:43;38.63;;;17.48;;
33459;SDS011;19795;53.160;6.612;2023-02-10T08:00:09;42.20;;;17.67;;
33459;SDS011;19795;53.160;6.612;2023-02-10T08:02:37;47.38;;;18.35;;
33459;SDS011;19795;53.160;6.612;2023-02-10T08:05:02;37.38;;;17.45;;
33459;SDS011;19795;53.160;6.612;2023-02-10T08:07:28;39.22;;;16.75;;
33459;SDS011;19795;53.160;6.612;2023-02-10T08:09:54;40.60;;;17.27;;
33459;SDS011;19795;53.160;6.612;2023-02-10T08:12:20;36.17;;;16.88;;
33459;SDS011;19795;53.160;6.612;2023-02-10T08:14:45;41.47;;;18.48;;
33459;SDS011;19795;53.160;6.612;2023-02-10T08:17:11;47.78;;;17.67;;
33459;SDS011;19795;53.160;6.612;2023-02-10T08:19:37;35.10;;;17.10;;
33459;SDS011;19795;53.160;6.612;2023-02-10T08:22:06;29.30;;;15.45;;
33459;SDS011;19795;53.160;6.612;2023-02-10T08:24:31;33.55;;;16.23;;
33459;SDS011;19795;53.160;6.612;2023-02-10T08:26:57;31.23;;;14.95;;
33459;SDS011;19795;53.160;6.612;2023-02-10T08:29:23;33.38;;;14.52;;
33459;SDS011;19795;53.160;6.612;2023-02-10T08:31:49;27.95;;;13.52;;
33459;SDS011;19795;53.160;6.612;2023-02-10T08:34:15;36.38;;;14.30;;
33459;SDS011;19795;53.160;6.612;2023-02-10T08:36:43;33.13;;;14.90;;
33459;SDS011;19795;53.160;6.612;2023-02-10T08:39:10;32.15;;;14.98;;
33459;SDS011;19795;53.160;6.612;2023-02-10T08:41:36;31.00;;;14.57;;
33459;SDS011;19795;53.160;6.612;2023-02-10T08:44:02;34.15;;;14.30;;
33459;SDS011;19795;53.160;6.612;2023-02-10T08:46:28;28.83;;;14.32;;
33459;SDS011;19795;53.160;6.612;2023-02-10T08:48:53;32.40;;;13.73;;
33459;SDS011;19795;53.160;6.612;2023-02-10T08:51:19;25.05;;;12.63;;
33459;SDS011;19795;53.160;6.612;2023-02-10T08:53:45;33.25;;;13.23;;
33459;SDS011;19795;53.160;6.612;2023-02-10T08:56:13;29.52;;;12.88;;
33459;SDS011;19795;53.160;6.612;2023-02-10T08:58:41;27.95;;;12.55;;
33459;SDS011;19795;53.160;6.612;2023-02-10T09:01:08;26.65;;;10.82;;
33459;SDS011;19795;53.160;6.612;2023-02-10T09:03:39;30.02;;;11.52;;
33459;SDS011;19795;53.160;6.612;2023-02-10T09:06:17;26.67;;;12.48;;
33459;SDS011;19795;53.160;6.612;2023-02-10T09:08:45;27.85;;;11.15;;
33459;SDS011;19795;53.160;6.612;2023-02-10T09:11:12;22.35;;;11.90;;
33459;SDS011;19795;53.160;6.612;2023-02-10T09:13:39;28.30;;;11.02;;
33459;SDS011;19795;53.160;6.612;2023-02-10T09:16:05;29.35;;;12.35;;
33459;SDS011;19795;53.160;6.612;2023-02-10T09:18:31;21.65;;;11.27;;
33459;SDS011;19795;53.160;6.612;2023-02-10T09:20:57;29.85;;;12.30;;
33459;SDS011;19795;53.160;6.612;2023-02-10T09:23:24;23.23;;;11.27;;
33459;SDS011;19795;53.160;6.612;2023-02-10T09:25:56;24.30;;;12.25;;
33459;SDS011;19795;53.160;6.612;2023-02-10T09:28:24;31.33;;;11.73;;
33459;SDS011;19795;53.160;6.612;2023-02-10T09:30:50;28.08;;;10.95;;
33459;SDS011;19795;53.160;6.612;2023-02-10T09:33:16;27.55;;;11.90;;
33459;SDS011;19795;53.160;6.612;2023-02-10T09:35:42;23.35;;;11.80;;
33459;SDS011;19795;53.160;6.612;2023-02-10T09:38:09;29.40;;;12.73;;
33459;SDS011;19795;53.160;6.612;2023-02-10T09:40:46;29.65;;;12.27;;
33459;SDS011;19795;53.160;6.612;2023-02-10T09:44:01;26.88;;;12.40;;
33459;SDS011;19795;53.160;6.612;2023-02-10T09:57:56;24.85;;;12.10;;
33459;SDS011;19795;53.160;6.612;2023-02-10T10:00:41;26.83;;;11.20;;
33459;SDS011;19795;53.160;6.612;2023-02-10T10:03:15;22.33;;;10.20;;
33459;SDS011;19795;53.160;6.612;2023-02-10T10:06:07;21.75;;;10.32;;
33459;SDS011;19795;53.160;6.612;2023-02-10T10:11:25;23.42;;;11.00;;
33459;SDS011;19795;53.160;6.612;2023-02-10T10:13:56;23.55;;;10.10;;
33459;SDS011;19795;53.160;6.612;2023-02-10T10:29:56;23.45;;;10.35;;
33459;SDS011;19795;53.160;6.612;2023-02-10T10:32:37;25.95;;;10.48;;
33459;SDS011;19795;53.160;6.612;2023-02-10T10:35:14;19.15;;;9.57;;
33459;SDS011;19795;53.160;6.612;2023-02-10T10:37:42;19.13;;;9.77;;
33459;SDS011;19795;53.160;6.612;2023-02-10T10:40:13;22.98;;;9.85;;
33459;SDS011;19795;53.160;6.612;2023-02-10T10:42:46;23.17;;;10.00;;
33459;SDS011;19795;53.160;6.612;2023-02-10T10:45:36;21.58;;;9.27;;
33459;SDS011;19795;53.160;6.612;2023-02-10T10:48:18;24.85;;;10.20;;
33459;SDS011;19795;53.160;6.612;2023-02-10T10:50:50;23.25;;;9.30;;
33459;SDS011;19795;53.160;6.612;2023-02-10T10:53:18;17.63;;;8.20;;
33459;SDS011;19795;53.160;6.612;2023-02-10T10:55:53;21.88;;;8.15;;
33459;SDS011;19795;53.160;6.612;2023-02-10T11:01:00;21.08;;;8.13;;
33459;SDS011;19795;53.160;6.612;2023-02-10T11:03:26;20.83;;;8.20;;
33459;SDS011;19795;53.160;6.612;2023-02-10T11:06:09;19.95;;;7.68;;
33459;SDS011;19795;53.160;6.612;2023-02-10T11:09:00;28.67;;;9.02;;
33459;SDS011;19795;53.160;6.612;2023-02-10T11:11:37;21.38;;;7.60;;
33459;SDS011;19795;53.160;6.612;2023-02-10T11:14:40;22.73;;;8.45;;
33459;SDS011;19795;53.160;6.612;2023-02-10T11:17:51;25.25;;;8.55;;
33459;SDS011;19795;53.160;6.612;2023-02-10T11:19:59;20.23;;;7.47;;
33459;SDS011;19795;53.160;6.612;2023-02-10T11:22:28;26.00;;;8.57;;
33459;SDS011;19795;53.160;6.612;2023-02-10T11:24:58;20.23;;;8.13;;
33459;SDS011;19795;53.160;6.612;2023-02-10T11:27:51;24.63;;;8.40;;
33459;SDS011;19795;53.160;6.612;2023-02-10T11:30:25;21.17;;;7.70;;
33459;SDS011;19795;53.160;6.612;2023-02-10T11:32:55;19.23;;;7.20;;
33459;SDS011;19795;53.160;6.612;2023-02-10T11:35:22;21.92;;;7.13;;
33459;SDS011;19795;53.160;6.612;2023-02-10T11:37:54;43.15;;;8.43;;
33459;SDS011;19795;53.160;6.612;2023-02-10T11:42:55;26.00;;;7.75;;
33459;SDS011;19795;53.160;6.612;2023-02-10T11:45:24;21.48;;;7.15;;
33459;SDS011;19795;53.160;6.612;2023-02-10T11:50:35;20.25;;;7.43;;
33459;SDS011;19795;53.160;6.612;2023-02-10T11:53:02;20.83;;;7.72;;
33459;SDS011;19795;53.160;6.612;2023-02-10T11:55:32;23.85;;;7.75;;
33459;SDS011;19795;53.160;6.612;2023-02-10T11:58:31;18.40;;;7.35;;
33459;SDS011;19795;53.160;6.612;2023-02-10T12:04:14;20.17;;;6.97;;
33459;SDS011;19795;53.160;6.612;2023-02-10T12:10:03;14.88;;;6.43;;
33459;SDS011;19795;53.160;6.612;2023-02-10T12:18:24;22.10;;;6.15;;
33459;SDS011;19795;53.160;6.612;2023-02-10T12:21:21;21.05;;;5.25;;
33459;SDS011;19795;53.160;6.612;2023-02-10T12:24:09;22.70;;;5.03;;
33459;SDS011;19795;53.160;6.612;2023-02-10T12:26:44;16.70;;;5.20;;
33459;SDS011;19795;53.160;6.612;2023-02-10T12:34:59;11.23;;;4.32;;
33459;SDS011;19795;53.160;6.612;2023-02-10T12:41:01;21.88;;;4.40;;
33459;SDS011;19795;53.160;6.612;2023-02-10T12:47:11;19.58;;;5.10;;
33459;SDS011;19795;53.160;6.612;2023-02-10T12:55:57;19.77;;;4.93;;
33459;SDS011;19795;53.160;6.612;2023-02-10T12:58:39;18.55;;;4.18;;
33459;SDS011;19795;53.160;6.612;2023-02-10T13:04:26;16.85;;;4.22;;
33459;SDS011;19795;53.160;6.612;2023-02-10T13:10:26;20.35;;;4.18;;
33459;SDS011;19795;53.160;6.612;2023-02-10T13:13:04;14.48;;;3.97;;
33459;SDS011;19795;53.160;6.612;2023-02-10T13:16:08;17.13;;;3.88;;
33459;SDS011;19795;53.160;6.612;2023-02-10T13:24:08;14.35;;;3.90;;
33459;SDS011;19795;53.160;6.612;2023-02-10T13:29:30;18.98;;;4.40;;
33459;SDS011;19795;53.160;6.612;2023-02-10T13:34:52;16.63;;;3.78;;
33459;SDS011;19795;53.160;6.612;2023-02-10T13:39:55;12.85;;;3.38;;
33459;SDS011;19795;53.160;6.612;2023-02-10T13:42:33;16.17;;;3.67;;
33459;SDS011;19795;53.160;6.612;2023-02-10T13:45:03;16.13;;;3.63;;
33459;SDS011;19795;53.160;6.612;2023-02-10T13:47:35;10.80;;;2.92;;
33459;SDS011;19795;53.160;6.612;2023-02-10T13:52:54;12.15;;;3.20;;
33459;SDS011;19795;53.160;6.612;2023-02-10T14:00:43;14.80;;;3.83;;
33459;SDS011;19795;53.160;6.612;2023-02-10T14:10:58;19.17;;;4.30;;
33459;SDS011;19795;53.160;6.612;2023-02-10T14:13:33;14.35;;;4.13;;
33459;SDS011;19795;53.160;6.612;2023-02-10T14:16:35;19.10;;;4.43;;
33459;SDS011;19795;53.160;6.612;2023-02-10T14:18:57;15.45;;;4.88;;
33459;SDS011;19795;53.160;6.612;2023-02-10T14:21:25;17.58;;;5.20;;
33459;SDS011;19795;53.160;6.612;2023-02-10T14:24:01;17.98;;;4.60;;
33459;SDS011;19795;53.160;6.612;2023-02-10T14:26:34;22.20;;;4.90;;
33459;SDS011;19795;53.160;6.612;2023-02-10T14:29:00;18.65;;;4.72;;
33459;SDS011;19795;53.160;6.612;2023-02-10T14:31:28;19.85;;;4.88;;
33459;SDS011;19795;53.160;6.612;2023-02-10T14:34:02;17.92;;;4.53;;
33459;SDS011;19795;53.160;6.612;2023-02-10T14:36:31;16.00;;;4.65;;
33459;SDS011;19795;53.160;6.612;2023-02-10T14:38:57;13.27;;;4.50;;
33459;SDS011;19795;53.160;6.612;2023-02-10T14:41:25;18.80;;;4.35;;
33459;SDS011;19795;53.160;6.612;2023-02-10T14:43:53;14.27;;;3.72;;
33459;SDS011;19795;53.160;6.612;2023-02-10T14:46:27;21.65;;;5.32;;
33459;SDS011;19795;53.160;6.612;2023-02-10T14:48:57;16.77;;;4.30;;
33459;SDS011;19795;53.160;6.612;2023-02-10T14:51:28;14.80;;;4.70;;
33459;SDS011;19795;53.160;6.612;2023-02-10T14:53:55;15.30;;;4.93;;
33459;SDS011;19795;53.160;6.612;2023-02-10T14:56:31;16.48;;;5.40;;
33459;SDS011;19795;53.160;6.612;2023-02-10T14:58:57;15.65;;;5.25;;
33459;SDS011;19795;53.160;6.612;2023-02-10T15:01:26;19.15;;;5.35;;
33459;SDS011;19795;53.160;6.612;2023-02-10T15:03:57;17.38;;;5.35;;
33459;SDS011;19795;53.160;6.612;2023-02-10T15:06:24;17.42;;;5.00;;
33459;SDS011;19795;53.160;6.612;2023-02-10T15:08:57;18.08;;;5.07;;
33459;SDS011;19795;53.160;6.612;2023-02-10T15:11:39;16.25;;;4.88;;
33459;SDS011;19795;53.160;6.612;2023-02-10T15:14:34;15.90;;;4.15;;
33459;SDS011;19795;53.160;6.612;2023-02-10T15:20:35;14.85;;;4.65;;
33459;SDS011;19795;53.160;6.612;2023-02-10T15:23:03;18.30;;;4.85;;
33459;SDS011;19795;53.160;6.612;2023-02-10T15:25:37;14.48;;;5.00;;
33459;SDS011;19795;53.160;6.612;2023-02-10T15:33:36;14.88;;;5.15;;
33459;SDS011;19795;53.160;6.612;2023-02-10T15:38:56;16.05;;;4.65;;
33459;SDS011;19795;53.160;6.612;2023-02-10T15:41:29;14.25;;;4.60;;
33459;SDS011;19795;53.160;6.612;2023-02-10T15:46:44;17.30;;;4.88;;
33459;SDS011;19795;53.160;6.612;2023-02-10T15:49:12;15.40;;;4.43;;
33459;SDS011;19795;53.160;6.612;2023-02-10T15:51:44;17.50;;;5.60;;
33459;SDS011;19795;53.160;6.612;2023-02-10T15:54:19;15.50;;;5.10;;
33459;SDS011;19795;53.160;6.612;2023-02-10T15:57:02;18.52;;;5.43;;
33459;SDS011;19795;53.160;6.612;2023-02-10T15:59:30;13.98;;;5.53;;
33459;SDS011;19795;53.160;6.612;2023-02-10T16:01:58;17.58;;;5.00;;
33459;SDS011;19795;53.160;6.612;2023-02-10T16:04:26;20.67;;;6.00;;
33459;SDS011;19795;53.160;6.612;2023-02-10T16:06:54;19.30;;;5.40;;
33459;SDS011;19795;53.160;6.612;2023-02-10T16:09:23;19.67;;;5.70;;
33459;SDS011;19795;53.160;6.612;2023-02-10T16:11:49;17.98;;;5.45;;
33459;SDS011;19795;53.160;6.612;2023-02-10T16:14:15;17.58;;;5.78;;
33459;SDS011;19795;53.160;6.612;2023-02-10T16:16:42;17.58;;;5.93;;
33459;SDS011;19795;53.160;6.612;2023-02-10T16:19:10;23.30;;;5.93;;
33459;SDS011;19795;53.160;6.612;2023-02-10T16:21:38;22.15;;;6.03;;
33459;SDS011;19795;53.160;6.612;2023-02-10T16:24:04;19.42;;;6.43;;
33459;SDS011;19795;53.160;6.612;2023-02-10T16:26:30;17.67;;;6.53;;
33459;SDS011;19795;53.160;6.612;2023-02-10T16:28:55;20.40;;;6.50;;
33459;SDS011;19795;53.160;6.612;2023-02-10T16:31:21;20.67;;;6.78;;
33459;SDS011;19795;53.160;6.612;2023-02-10T16:33:48;18.75;;;6.40;;
33459;SDS011;19795;53.160;6.612;2023-02-10T16:36:14;19.92;;;6.70;;
33459;SDS011;19795;53.160;6.612;2023-02-10T16:38:41;16.55;;;7.30;;
33459;SDS011;19795;53.160;6.612;2023-02-10T16:41:08;21.75;;;7.32;;
33459;SDS011;19795;53.160;6.612;2023-02-10T16:43:34;19.60;;;7.30;;
33459;SDS011;19795;53.160;6.612;2023-02-10T16:46:00;18.35;;;7.10;;
33459;SDS011;19795;53.160;6.612;2023-02-10T16:48:26;23.75;;;7.53;;
33459;SDS011;19795;53.160;6.612;2023-02-10T16:50:51;19.75;;;7.88;;
33459;SDS011;19795;53.160;6.612;2023-02-10T16:53:17;20.73;;;7.68;;
33459;SDS011;19795;53.160;6.612;2023-02-10T16:55:43;20.15;;;8.38;;
33459;SDS011;19795;53.160;6.612;2023-02-10T16:58:13;20.42;;;7.57;;
33459;SDS011;19795;53.160;6.612;2023-02-10T17:00:40;22.88;;;8.50;;
33459;SDS011;19795;53.160;6.612;2023-02-10T17:03:06;23.95;;;8.60;;
33459;SDS011;19795;53.160;6.612;2023-02-10T17:05:31;24.65;;;8.45;;
33459;SDS011;19795;53.160;6.612;2023-02-10T17:07:58;24.33;;;9.00;;
33459;SDS011;19795;53.160;6.612;2023-02-10T17:10:25;18.10;;;8.95;;
33459;SDS011;19795;53.160;6.612;2023-02-10T17:12:53;23.80;;;8.40;;
33459;SDS011;19795;53.160;6.612;2023-02-10T17:15:21;24.02;;;9.27;;
33459;SDS011;19795;53.160;6.612;2023-02-10T17:17:47;19.10;;;8.55;;
33459;SDS011;19795;53.160;6.612;2023-02-10T17:20:27;21.45;;;8.35;;
33459;SDS011;19795;53.160;6.612;2023-02-10T17:22:54;19.02;;;8.75;;
33459;SDS011;19795;53.160;6.612;2023-02-10T17:25:22;20.33;;;9.02;;
33459;SDS011;19795;53.160;6.612;2023-02-10T17:27:48;20.80;;;8.70;;
33459;SDS011;19795;53.160;6.612;2023-02-10T17:32:44;25.38;;;8.63;;
33459;SDS011;19795;53.160;6.612;2023-02-10T17:35:10;21.52;;;8.77;;
33459;SDS011;19795;53.160;6.612;2023-02-10T17:37:38;24.95;;;8.20;;
33459;SDS011;19795;53.160;6.612;2023-02-10T17:40:04;18.00;;;8.30;;
33459;SDS011;19795;53.160;6.612;2023-02-10T17:42:35;18.98;;;8.18;;
33459;SDS011;19795;53.160;6.612;2023-02-10T17:45:01;24.08;;;9.45;;
33459;SDS011;19795;53.160;6.612;2023-02-10T17:47:27;20.52;;;9.15;;
33459;SDS011;19795;53.160;6.612;2023-02-10T17:49:52;18.70;;;8.68;;
33459;SDS011;19795;53.160;6.612;2023-02-10T17:52:18;20.63;;;9.30;;
33459;SDS011;19795;53.160;6.612;2023-02-10T17:54:44;19.90;;;8.73;;
33459;SDS011;19795;53.160;6.612;2023-02-10T17:57:11;23.00;;;9.32;;
33459;SDS011;19795;53.160;6.612;2023-02-10T17:59:39;22.92;;;9.73;;
33459;SDS011;19795;53.160;6.612;2023-02-10T18:02:11;24.88;;;9.70;;
33459;SDS011;19795;53.160;6.612;2023-02-10T18:04:40;24.40;;;9.90;;
33459;SDS011;19795;53.160;6.612;2023-02-10T18:07:08;24.00;;;9.60;;
33459;SDS011;19795;53.160;6.612;2023-02-10T18:09:34;21.00;;;10.18;;
33459;SDS011;19795;53.160;6.612;2023-02-10T18:12:00;19.10;;;10.07;;
33459;SDS011;19795;53.160;6.612;2023-02-10T18:14:30;26.35;;;10.07;;
33459;SDS011;19795;53.160;6.612;2023-02-10T18:16:57;20.52;;;8.85;;
33459;SDS011;19795;53.160;6.612;2023-02-10T18:19:28;30.02;;;10.10;;
33459;SDS011;19795;53.160;6.612;2023-02-10T18:21:54;20.95;;;10.85;;
33459;SDS011;19795;53.160;6.612;2023-02-10T18:24:20;26.83;;;10.50;;
33459;SDS011;19795;53.160;6.612;2023-02-10T18:26:46;25.40;;;11.57;;
33459;SDS011;19795;53.160;6.612;2023-02-10T18:29:12;25.02;;;11.45;;
33459;SDS011;19795;53.160;6.612;2023-02-10T18:31:37;27.88;;;11.73;;
33459;SDS011;19795;53.160;6.612;2023-02-10T18:34:03;24.98;;;11.48;;
33459;SDS011;19795;53.160;6.612;2023-02-10T18:36:30;23.23;;;11.63;;
33459;SDS011;19795;53.160;6.612;2023-02-10T18:38:57;29.35;;;12.05;;
33459;SDS011;19795;53.160;6.612;2023-02-10T18:41:23;27.33;;;11.90;;
33459;SDS011;19795;53.160;6.612;2023-02-10T18:43:49;31.92;;;13.25;;
33459;SDS011;19795;53.160;6.612;2023-02-10T18:46:15;26.52;;;13.13;;
33459;SDS011;19795;53.160;6.612;2023-02-10T18:48:42;34.10;;;14.32;;
33459;SDS011;19795;53.160;6.612;2023-02-10T18:51:10;28.25;;;13.38;;
33459;SDS011;19795;53.160;6.612;2023-02-10T18:53:36;34.25;;;13.65;;
33459;SDS011;19795;53.160;6.612;2023-02-10T18:58:33;27.10;;;12.80;;
33459;SDS011;19795;53.160;6.612;2023-02-10T19:01:06;27.35;;;11.95;;
33459;SDS011;19795;53.160;6.612;2023-02-10T19:03:33;25.70;;;12.25;;
33459;SDS011;19795;53.160;6.612;2023-02-10T19:05:59;27.27;;;12.32;;
33459;SDS011;19795;53.160;6.612;2023-02-10T19:08:26;27.70;;;12.30;;
33459;SDS011;19795;53.160;6.612;2023-02-10T19:10:53;26.80;;;11.90;;
33459;SDS011;19795;53.160;6.612;2023-02-10T19:13:27;27.48;;;12.25;;
33459;SDS011;19795;53.160;6.612;2023-02-10T19:15:53;26.05;;;11.43;;
33459;SDS011;19795;53.160;6.612;2023-02-10T19:18:19;30.70;;;12.65;;
33459;SDS011;19795;53.160;6.612;2023-02-10T19:20:45;30.02;;;11.25;;
33459;SDS011;19795;53.160;6.612;2023-02-10T19:23:10;25.67;;;11.18;;
33459;SDS011;19795;53.160;6.612;2023-02-10T19:25:36;21.40;;;10.57;;
33459;SDS011;19795;53.160;6.612;2023-02-10T19:28:02;24.52;;;11.23;;
33459;SDS011;19795;53.160;6.612;2023-02-10T19:30:27;26.35;;;10.38;;
33459;SDS011;19795;53.160;6.612;2023-02-10T19:32:53;28.33;;;10.20;;
33459;SDS011;19795;53.160;6.612;2023-02-10T19:35:19;27.40;;;10.88;;
33459;SDS011;19795;53.160;6.612;2023-02-10T19:37:44;34.08;;;10.30;;
33459;SDS011;19795;53.160;6.612;2023-02-10T19:40:10;25.52;;;10.00;;
33459;SDS011;19795;53.160;6.612;2023-02-10T19:42:38;24.05;;;9.85;;
33459;SDS011;19795;53.160;6.612;2023-02-10T19:45:04;25.27;;;9.40;;
33459;SDS011;19795;53.160;6.612;2023-02-10T19:47:32;27.48;;;9.82;;
33459;SDS011;19795;53.160;6.612;2023-02-10T19:49:58;28.25;;;9.45;;
33459;SDS011;19795;53.160;6.612;2023-02-10T19:52:24;22.58;;;8.63;;
33459;SDS011;19795;53.160;6.612;2023-02-10T19:54:50;20.75;;;8.00;;
33459;SDS011;19795;53.160;6.612;2023-02-10T19:57:16;20.88;;;8.05;;
33459;SDS011;19795;53.160;6.612;2023-02-10T19:59:41;22.63;;;8.30;;
33459;SDS011;19795;53.160;6.612;2023-02-10T20:02:08;27.55;;;7.88;;
33459;SDS011;19795;53.160;6.612;2023-02-10T20:04:34;16.83;;;7.70;;
33459;SDS011;19795;53.160;6.612;2023-02-10T20:07:00;20.77;;;7.47;;
33459;SDS011;19795;53.160;6.612;2023-02-10T20:09:25;22.45;;;7.00;;
33459;SDS011;19795;53.160;6.612;2023-02-10T20:11:51;23.17;;;7.38;;
33459;SDS011;19795;53.160;6.612;2023-02-10T20:14:17;20.08;;;7.15;;
33459;SDS011;19795;53.160;6.612;2023-02-10T20:16:43;20.73;;;6.80;;
33459;SDS011;19795;53.160;6.612;2023-02-10T20:19:10;27.08;;;7.03;;
33459;SDS011;19795;53.160;6.612;2023-02-10T20:21:38;23.73;;;7.03;;
33459;SDS011;19795;53.160;6.612;2023-02-10T20:24:04;24.75;;;6.90;;
33459;SDS011;19795;53.160;6.612;2023-02-10T20:26:31;18.58;;;7.03;;
33459;SDS011;19795;53.160;6.612;2023-02-10T20:28:56;24.20;;;6.10;;
33459;SDS011;19795;53.160;6.612;2023-02-10T20:31:22;22.67;;;6.57;;
33459;SDS011;19795;53.160;6.612;2023-02-10T20:33:48;25.33;;;6.88;;
33459;SDS011;19795;53.160;6.612;2023-02-10T20:36:15;17.58;;;6.95;;
33459;SDS011;19795;53.160;6.612;2023-02-10T20:38:43;24.33;;;7.13;;
33459;SDS011;19795;53.160;6.612;2023-02-10T20:41:10;26.10;;;7.10;;
33459;SDS011;19795;53.160;6.612;2023-02-10T20:43:38;17.80;;;6.63;;
33459;SDS011;19795;53.160;6.612;2023-02-10T20:46:04;14.93;;;7.10;;
33459;SDS011;19795;53.160;6.612;2023-02-10T20:48:31;17.13;;;6.85;;
33459;SDS011;19795;53.160;6.612;2023-02-10T20:51:01;19.27;;;6.60;;
33459;SDS011;19795;53.160;6.612;2023-02-10T20:53:29;18.40;;;6.60;;
33459;SDS011;19795;53.160;6.612;2023-02-10T20:55:55;18.33;;;6.88;;
33459;SDS011;19795;53.160;6.612;2023-02-10T20:58:21;25.60;;;7.53;;
33459;SDS011;19795;53.160;6.612;2023-02-10T21:00:47;22.70;;;6.82;;
33459;SDS011;19795;53.160;6.612;2023-02-10T21:03:13;21.60;;;6.40;;
33459;SDS011;19795;53.160;6.612;2023-02-10T21:05:39;20.00;;;6.50;;
33459;SDS011;19795;53.160;6.612;2023-02-10T21:08:05;20.23;;;6.90;;
33459;SDS011;19795;53.160;6.612;2023-02-10T21:10:31;23.67;;;8.07;;
33459;SDS011;19795;53.160;6.612;2023-02-10T21:12:57;18.67;;;6.53;;
33459;SDS011;19795;53.160;6.612;2023-02-10T21:15:23;26.13;;;7.00;;
33459;SDS011;19795;53.160;6.612;2023-02-10T21:17:48;29.55;;;8.10;;
33459;SDS011;19795;53.160;6.612;2023-02-10T21:20:15;18.08;;;7.53;;
33459;SDS011;19795;53.160;6.612;2023-02-10T21:22:40;28.13;;;7.20;;
33459;SDS011;19795;53.160;6.612;2023-02-10T21:25:06;19.02;;;7.43;;
33459;SDS011;19795;53.160;6.612;2023-02-10T21:27:37;21.00;;;7.80;;
33459;SDS011;19795;53.160;6.612;2023-02-10T21:30:05;22.60;;;7.30;;
33459;SDS011;19795;53.160;6.612;2023-02-10T21:32:32;22.98;;;7.10;;
33459;SDS011;19795;53.160;6.612;2023-02-10T21:34:58;23.45;;;7.45;;
33459;SDS011;19795;53.160;6.612;2023-02-10T21:37:24;18.30;;;7.80;;
33459;SDS011;19795;53.160;6.612;2023-02-10T21:39:51;22.73;;;7.60;;
33459;SDS011;19795;53.160;6.612;2023-02-10T21:42:17;20.75;;;7.60;;
33459;SDS011;19795;53.160;6.612;2023-02-10T21:44:44;26.77;;;7.82;;
33459;SDS011;19795;53.160;6.612;2023-02-10T21:47:10;21.58;;;7.22;;
33459;SDS011;19795;53.160;6.612;2023-02-10T21:49:37;27.17;;;7.70;;
33459;SDS011;19795;53.160;6.612;2023-02-10T21:52:04;21.20;;;7.32;;